sensor_id;sensor_type;location;lat;lon;timestamp;P1;durP1;ratioP1;P2;durP2;ratioP2
64932;SDS011;51446;53.850;10.662;2023-08-08T00:00:15;7.67;;;2.03;;
64932;SDS011;51446;53.850;10.662;2023-08-08T00:02:40;6.47;;;2.10;;
64932;SDS011;51446;53.850;10.662;2023-08-08T00:05:06;3.93;;;1.77;;
64932;SDS011;51446;53.850;10.662;2023-08-08T00:07:32;3.92;;;1.52;;
64932;SDS011;51446;53.850;10.662;2023-08-08T00:09:57;5.60;;;1.77;;
64932;SDS011;51446;53.850;10.662;2023-08-08T00:12:22;8.93;;;2.37;;
64932;SDS011;51446;53.850;10.662;2023-08-08T00:14:48;7.85;;;1.90;;
64932;SDS011;51446;53.850;10.662;2023-08-08T00:17:13;5.65;;;1.88;;
64932;SDS011;51446;53.850;10.662;2023-08-08T00:19:39;3.77;;;1.83;;
64932;SDS011;51446;53.850;10.662;2023-08-08T00:22:04;4.40;;;2.00;;
64932;SDS011;51446;53.850;10.662;2023-08-08T00:24:30;6.22;;;1.83;;
64932;SDS011;51446;53.850;10.662;2023-08-08T00:26:56;6.50;;;1.80;;
64932;SDS011;51446;53.850;10.662;2023-08-08T00:29:21;5.50;;;2.00;;
64932;SDS011;51446;53.850;10.662;2023-08-08T00:31:46;5.60;;;2.00;;
64932;SDS011;51446;53.850;10.662;2023-08-08T00:34:11;6.77;;;2.00;;
64932;SDS011;51446;53.850;10.662;2023-08-08T00:36:37;6.07;;;2.00;;
64932;SDS011;51446;53.850;10.662;2023-08-08T00:39:02;5.97;;;2.03;;
64932;SDS011;51446;53.850;10.662;2023-08-08T00:41:27;4.57;;;1.70;;
64932;SDS011;51446;53.850;10.662;2023-08-08T00:43:52;7.23;;;2.00;;
64932;SDS011;51446;53.850;10.662;2023-08-08T00:46:21;5.97;;;1.90;;
64932;SDS011;51446;53.850;10.662;2023-08-08T00:48:49;5.65;;;2.00;;
64932;SDS011;51446;53.850;10.662;2023-08-08T00:51:18;2.70;;;1.60;;
64932;SDS011;51446;53.850;10.662;2023-08-08T00:53:44;3.50;;;1.88;;
64932;SDS011;51446;53.850;10.662;2023-08-08T00:56:09;6.85;;;1.98;;
64932;SDS011;51446;53.850;10.662;2023-08-08T00:58:38;5.82;;;1.90;;
64932;SDS011;51446;53.850;10.662;2023-08-08T01:01:03;5.38;;;2.22;;
64932;SDS011;51446;53.850;10.662;2023-08-08T01:03:28;5.17;;;1.70;;
64932;SDS011;51446;53.850;10.662;2023-08-08T01:05:59;4.27;;;1.73;;
64932;SDS011;51446;53.850;10.662;2023-08-08T01:08:35;2.88;;;1.83;;
64932;SDS011;51446;53.850;10.662;2023-08-08T01:11:10;4.90;;;2.13;;
64932;SDS011;51446;53.850;10.662;2023-08-08T01:13:36;7.77;;;2.10;;
64932;SDS011;51446;53.850;10.662;2023-08-08T01:16:03;4.43;;;2.30;;
64932;SDS011;51446;53.850;10.662;2023-08-08T01:18:30;5.88;;;2.47;;
64932;SDS011;51446;53.850;10.662;2023-08-08T01:20:57;6.00;;;2.22;;
64932;SDS011;51446;53.850;10.662;2023-08-08T01:23:28;5.77;;;2.20;;
64932;SDS011;51446;53.850;10.662;2023-08-08T01:25:57;9.18;;;2.67;;
64932;SDS011;51446;53.850;10.662;2023-08-08T01:28:23;3.67;;;2.20;;
64932;SDS011;51446;53.850;10.662;2023-08-08T01:30:49;7.27;;;2.10;;
64932;SDS011;51446;53.850;10.662;2023-08-08T01:33:15;6.25;;;2.20;;
64932;SDS011;51446;53.850;10.662;2023-08-08T01:35:42;5.67;;;2.10;;
64932;SDS011;51446;53.850;10.662;2023-08-08T01:38:13;5.38;;;2.13;;
64932;SDS011;51446;53.850;10.662;2023-08-08T01:40:48;5.28;;;2.22;;
64932;SDS011;51446;53.850;10.662;2023-08-08T01:43:14;6.35;;;2.28;;
64932;SDS011;51446;53.850;10.662;2023-08-08T01:45:41;7.00;;;2.47;;
64932;SDS011;51446;53.850;10.662;2023-08-08T01:48:08;5.18;;;2.38;;
64932;SDS011;51446;53.850;10.662;2023-08-08T01:50:34;6.22;;;2.15;;
64932;SDS011;51446;53.850;10.662;2023-08-08T01:53:00;4.50;;;2.22;;
64932;SDS011;51446;53.850;10.662;2023-08-08T01:55:25;8.18;;;2.38;;
64932;SDS011;51446;53.850;10.662;2023-08-08T01:57:50;3.10;;;2.00;;
64932;SDS011;51446;53.850;10.662;2023-08-08T02:00:15;5.47;;;2.30;;
64932;SDS011;51446;53.850;10.662;2023-08-08T02:02:41;5.87;;;2.43;;
64932;SDS011;51446;53.850;10.662;2023-08-08T02:05:06;5.83;;;2.27;;
64932;SDS011;51446;53.850;10.662;2023-08-08T02:07:32;7.70;;;2.60;;
64932;SDS011;51446;53.850;10.662;2023-08-08T02:09:57;6.70;;;2.47;;
64932;SDS011;51446;53.850;10.662;2023-08-08T02:12:22;6.13;;;2.20;;
64932;SDS011;51446;53.850;10.662;2023-08-08T02:14:48;8.47;;;2.30;;
64932;SDS011;51446;53.850;10.662;2023-08-08T02:17:13;5.07;;;1.93;;
64932;SDS011;51446;53.850;10.662;2023-08-08T02:19:38;6.77;;;2.30;;
64932;SDS011;51446;53.850;10.662;2023-08-08T02:22:04;5.53;;;2.00;;
64932;SDS011;51446;53.850;10.662;2023-08-08T02:24:29;4.80;;;2.00;;
64932;SDS011;51446;53.850;10.662;2023-08-08T02:26:54;6.63;;;2.20;;
64932;SDS011;51446;53.850;10.662;2023-08-08T02:29:19;4.43;;;2.00;;
64932;SDS011;51446;53.850;10.662;2023-08-08T02:31:45;6.80;;;2.33;;
64932;SDS011;51446;53.850;10.662;2023-08-08T02:34:10;6.83;;;2.07;;
64932;SDS011;51446;53.850;10.662;2023-08-08T02:36:36;5.45;;;2.20;;
64932;SDS011;51446;53.850;10.662;2023-08-08T02:39:02;7.53;;;2.20;;
64932;SDS011;51446;53.850;10.662;2023-08-08T02:41:28;8.50;;;2.60;;
64932;SDS011;51446;53.850;10.662;2023-08-08T02:43:53;4.77;;;2.37;;
64932;SDS011;51446;53.850;10.662;2023-08-08T02:46:18;4.10;;;1.77;;
64932;SDS011;51446;53.850;10.662;2023-08-08T02:48:44;7.07;;;2.20;;
64932;SDS011;51446;53.850;10.662;2023-08-08T02:51:09;4.93;;;2.13;;
64932;SDS011;51446;53.850;10.662;2023-08-08T02:53:36;4.33;;;2.10;;
64932;SDS011;51446;53.850;10.662;2023-08-08T02:56:03;9.20;;;2.10;;
64932;SDS011;51446;53.850;10.662;2023-08-08T02:58:28;8.60;;;2.67;;
64932;SDS011;51446;53.850;10.662;2023-08-08T03:00:53;4.97;;;2.17;;
64932;SDS011;51446;53.850;10.662;2023-08-08T03:03:19;5.77;;;2.10;;
64932;SDS011;51446;53.850;10.662;2023-08-08T03:05:44;8.80;;;2.50;;
64932;SDS011;51446;53.850;10.662;2023-08-08T03:08:10;5.68;;;2.28;;
64932;SDS011;51446;53.850;10.662;2023-08-08T03:10:36;8.73;;;2.50;;
64932;SDS011;51446;53.850;10.662;2023-08-08T03:13:02;9.63;;;2.57;;
64932;SDS011;51446;53.850;10.662;2023-08-08T03:15:27;11.02;;;2.10;;
64932;SDS011;51446;53.850;10.662;2023-08-08T03:17:52;7.20;;;2.20;;
64932;SDS011;51446;53.850;10.662;2023-08-08T03:20:17;7.27;;;1.97;;
64932;SDS011;51446;53.850;10.662;2023-08-08T03:22:43;5.60;;;2.00;;
64932;SDS011;51446;53.850;10.662;2023-08-08T03:25:08;7.97;;;2.30;;
64932;SDS011;51446;53.850;10.662;2023-08-08T03:27:34;6.95;;;2.30;;
64932;SDS011;51446;53.850;10.662;2023-08-08T03:30:00;6.60;;;1.90;;
64932;SDS011;51446;53.850;10.662;2023-08-08T03:32:25;7.00;;;2.47;;
64932;SDS011;51446;53.850;10.662;2023-08-08T03:34:50;9.23;;;2.23;;
64932;SDS011;51446;53.850;10.662;2023-08-08T03:37:16;7.17;;;1.93;;
64932;SDS011;51446;53.850;10.662;2023-08-08T03:39:42;9.13;;;2.40;;
64932;SDS011;51446;53.850;10.662;2023-08-08T03:42:08;5.97;;;2.10;;
64932;SDS011;51446;53.850;10.662;2023-08-08T03:44:33;9.47;;;2.20;;
64932;SDS011;51446;53.850;10.662;2023-08-08T03:46:58;6.60;;;2.00;;
64932;SDS011;51446;53.850;10.662;2023-08-08T03:49:24;4.90;;;2.20;;
64932;SDS011;51446;53.850;10.662;2023-08-08T03:51:49;4.83;;;1.90;;
64932;SDS011;51446;53.850;10.662;2023-08-08T03:54:14;4.63;;;1.80;;
64932;SDS011;51446;53.850;10.662;2023-08-08T03:56:40;7.60;;;2.10;;
64932;SDS011;51446;53.850;10.662;2023-08-08T03:59:06;4.85;;;1.95;;
64932;SDS011;51446;53.850;10.662;2023-08-08T04:01:32;3.35;;;1.95;;
64932;SDS011;51446;53.850;10.662;2023-08-08T04:03:58;6.93;;;2.20;;
64932;SDS011;51446;53.850;10.662;2023-08-08T04:06:23;8.60;;;2.00;;
64932;SDS011;51446;53.850;10.662;2023-08-08T04:08:49;9.57;;;2.37;;
64932;SDS011;51446;53.850;10.662;2023-08-08T04:11:14;4.90;;;1.95;;
64932;SDS011;51446;53.850;10.662;2023-08-08T04:13:39;7.30;;;2.03;;
64932;SDS011;51446;53.850;10.662;2023-08-08T04:16:05;6.70;;;2.10;;
64932;SDS011;51446;53.850;10.662;2023-08-08T04:18:30;7.73;;;2.07;;
64932;SDS011;51446;53.850;10.662;2023-08-08T04:20:56;7.23;;;2.63;;
64932;SDS011;51446;53.850;10.662;2023-08-08T04:23:21;5.40;;;1.90;;
64932;SDS011;51446;53.850;10.662;2023-08-08T04:25:50;8.32;;;2.13;;
64932;SDS011;51446;53.850;10.662;2023-08-08T04:28:15;7.93;;;1.90;;
64932;SDS011;51446;53.850;10.662;2023-08-08T04:30:40;7.47;;;1.77;;
64932;SDS011;51446;53.850;10.662;2023-08-08T04:33:06;6.93;;;2.07;;
64932;SDS011;51446;53.850;10.662;2023-08-08T04:35:31;5.80;;;2.00;;
64932;SDS011;51446;53.850;10.662;2023-08-08T04:37:57;3.83;;;1.88;;
64932;SDS011;51446;53.850;10.662;2023-08-08T04:40:22;6.90;;;2.07;;
64932;SDS011;51446;53.850;10.662;2023-08-08T04:42:47;4.80;;;1.87;;
64932;SDS011;51446;53.850;10.662;2023-08-08T04:45:13;6.83;;;1.50;;
64932;SDS011;51446;53.850;10.662;2023-08-08T04:47:39;4.25;;;1.90;;
64932;SDS011;51446;53.850;10.662;2023-08-08T04:50:04;4.73;;;1.87;;
64932;SDS011;51446;53.850;10.662;2023-08-08T04:52:29;6.60;;;2.08;;
64932;SDS011;51446;53.850;10.662;2023-08-08T04:54:55;5.65;;;2.28;;
64932;SDS011;51446;53.850;10.662;2023-08-08T04:57:20;4.37;;;1.97;;
64932;SDS011;51446;53.850;10.662;2023-08-08T04:59:45;7.07;;;2.20;;
64932;SDS011;51446;53.850;10.662;2023-08-08T05:02:11;8.87;;;1.60;;
64932;SDS011;51446;53.850;10.662;2023-08-08T05:04:36;7.47;;;1.87;;
64932;SDS011;51446;53.850;10.662;2023-08-08T05:07:01;2.03;;;1.50;;
64932;SDS011;51446;53.850;10.662;2023-08-08T05:09:27;5.35;;;1.80;;
64932;SDS011;51446;53.850;10.662;2023-08-08T05:11:54;6.97;;;1.90;;
64932;SDS011;51446;53.850;10.662;2023-08-08T05:14:19;8.23;;;1.65;;
64932;SDS011;51446;53.850;10.662;2023-08-08T05:16:45;4.03;;;1.80;;
64932;SDS011;51446;53.850;10.662;2023-08-08T05:19:11;5.22;;;1.70;;
64932;SDS011;51446;53.850;10.662;2023-08-08T05:21:37;7.50;;;1.80;;
64932;SDS011;51446;53.850;10.662;2023-08-08T05:24:02;6.20;;;1.83;;
64932;SDS011;51446;53.850;10.662;2023-08-08T05:26:28;5.82;;;1.67;;
64932;SDS011;51446;53.850;10.662;2023-08-08T05:28:53;6.93;;;1.73;;
64932;SDS011;51446;53.850;10.662;2023-08-08T05:31:18;8.23;;;1.80;;
64932;SDS011;51446;53.850;10.662;2023-08-08T05:33:44;4.87;;;1.53;;
64932;SDS011;51446;53.850;10.662;2023-08-08T05:36:09;4.70;;;1.40;;
64932;SDS011;51446;53.850;10.662;2023-08-08T05:38:35;6.50;;;1.90;;
64932;SDS011;51446;53.850;10.662;2023-08-08T05:41:00;2.40;;;1.40;;
64932;SDS011;51446;53.850;10.662;2023-08-08T05:43:25;8.13;;;1.90;;
64932;SDS011;51446;53.850;10.662;2023-08-08T05:45:53;4.43;;;1.77;;
64932;SDS011;51446;53.850;10.662;2023-08-08T05:48:19;5.05;;;1.65;;
64932;SDS011;51446;53.850;10.662;2023-08-08T05:50:44;4.33;;;1.40;;
64932;SDS011;51446;53.850;10.662;2023-08-08T05:53:09;6.63;;;1.70;;
64932;SDS011;51446;53.850;10.662;2023-08-08T05:55:34;7.83;;;1.97;;
64932;SDS011;51446;53.850;10.662;2023-08-08T05:58:00;3.07;;;1.87;;
64932;SDS011;51446;53.850;10.662;2023-08-08T06:00:25;6.20;;;2.13;;
64932;SDS011;51446;53.850;10.662;2023-08-08T06:02:50;7.17;;;1.60;;
64932;SDS011;51446;53.850;10.662;2023-08-08T06:05:19;6.53;;;1.43;;
64932;SDS011;51446;53.850;10.662;2023-08-08T06:07:46;2.70;;;1.30;;
64932;SDS011;51446;53.850;10.662;2023-08-08T06:10:12;3.97;;;1.83;;
64932;SDS011;51446;53.850;10.662;2023-08-08T06:12:37;3.60;;;1.30;;
64932;SDS011;51446;53.850;10.662;2023-08-08T06:15:02;5.35;;;1.40;;
64932;SDS011;51446;53.850;10.662;2023-08-08T06:17:29;4.90;;;1.30;;
64932;SDS011;51446;53.850;10.662;2023-08-08T06:19:54;7.05;;;1.67;;
64932;SDS011;51446;53.850;10.662;2023-08-08T06:22:21;3.40;;;1.50;;
64932;SDS011;51446;53.850;10.662;2023-08-08T06:24:46;4.47;;;1.40;;
64932;SDS011;51446;53.850;10.662;2023-08-08T06:27:12;2.90;;;1.40;;
64932;SDS011;51446;53.850;10.662;2023-08-08T06:29:38;5.05;;;1.63;;
64932;SDS011;51446;53.850;10.662;2023-08-08T06:32:03;1.90;;;1.20;;
64932;SDS011;51446;53.850;10.662;2023-08-08T06:34:29;9.50;;;1.60;;
64932;SDS011;51446;53.850;10.662;2023-08-08T06:36:54;4.13;;;1.57;;
64932;SDS011;51446;53.850;10.662;2023-08-08T06:39:19;3.37;;;1.23;;
64932;SDS011;51446;53.850;10.662;2023-08-08T06:41:46;5.60;;;1.53;;
64932;SDS011;51446;53.850;10.662;2023-08-08T06:44:12;3.47;;;1.17;;
64932;SDS011;51446;53.850;10.662;2023-08-08T06:46:37;7.57;;;1.20;;
64932;SDS011;51446;53.850;10.662;2023-08-08T06:49:02;3.90;;;1.27;;
64932;SDS011;51446;53.850;10.662;2023-08-08T06:51:29;5.15;;;1.58;;
64932;SDS011;51446;53.850;10.662;2023-08-08T06:53:54;3.70;;;1.53;;
64932;SDS011;51446;53.850;10.662;2023-08-08T06:56:20;4.77;;;1.50;;
64932;SDS011;51446;53.850;10.662;2023-08-08T06:58:45;2.13;;;1.17;;
64932;SDS011;51446;53.850;10.662;2023-08-08T07:01:10;4.50;;;1.20;;
64932;SDS011;51446;53.850;10.662;2023-08-08T07:03:36;3.27;;;1.20;;
64932;SDS011;51446;53.850;10.662;2023-08-08T07:06:01;5.23;;;1.70;;
64932;SDS011;51446;53.850;10.662;2023-08-08T07:08:27;4.35;;;1.40;;
64932;SDS011;51446;53.850;10.662;2023-08-08T07:10:54;4.88;;;1.40;;
64932;SDS011;51446;53.850;10.662;2023-08-08T07:13:19;3.67;;;1.37;;
64932;SDS011;51446;53.850;10.662;2023-08-08T07:15:45;6.30;;;1.77;;
64932;SDS011;51446;53.850;10.662;2023-08-08T07:18:10;5.77;;;1.40;;
64932;SDS011;51446;53.850;10.662;2023-08-08T07:20:35;5.17;;;1.50;;
64932;SDS011;51446;53.850;10.662;2023-08-08T07:23:00;6.07;;;1.57;;
64932;SDS011;51446;53.850;10.662;2023-08-08T07:25:26;3.33;;;1.33;;
64932;SDS011;51446;53.850;10.662;2023-08-08T07:27:52;5.93;;;1.60;;
64932;SDS011;51446;53.850;10.662;2023-08-08T07:30:17;7.43;;;1.53;;
64932;SDS011;51446;53.850;10.662;2023-08-08T07:32:42;5.47;;;1.40;;
64932;SDS011;51446;53.850;10.662;2023-08-08T07:35:08;3.07;;;1.10;;
64932;SDS011;51446;53.850;10.662;2023-08-08T07:37:34;3.67;;;1.50;;
64932;SDS011;51446;53.850;10.662;2023-08-08T07:40:01;3.50;;;1.20;;
64932;SDS011;51446;53.850;10.662;2023-08-08T07:42:26;5.32;;;1.30;;
64932;SDS011;51446;53.850;10.662;2023-08-08T07:44:52;10.70;;;1.97;;
64932;SDS011;51446;53.850;10.662;2023-08-08T07:47:17;5.50;;;1.10;;
64932;SDS011;51446;53.850;10.662;2023-08-08T07:49:43;5.00;;;1.50;;
64932;SDS011;51446;53.850;10.662;2023-08-08T07:52:08;6.38;;;1.55;;
64932;SDS011;51446;53.850;10.662;2023-08-08T07:54:34;6.40;;;1.23;;
64932;SDS011;51446;53.850;10.662;2023-08-08T07:56:59;7.28;;;1.65;;
64932;SDS011;51446;53.850;10.662;2023-08-08T07:59:25;5.93;;;1.30;;
64932;SDS011;51446;53.850;10.662;2023-08-08T08:01:50;4.50;;;1.10;;
64932;SDS011;51446;53.850;10.662;2023-08-08T08:04:15;6.20;;;1.00;;
64932;SDS011;51446;53.850;10.662;2023-08-08T08:06:41;4.80;;;1.00;;
64932;SDS011;51446;53.850;10.662;2023-08-08T08:09:06;3.40;;;1.33;;
64932;SDS011;51446;53.850;10.662;2023-08-08T08:11:32;3.27;;;1.30;;
64932;SDS011;51446;53.850;10.662;2023-08-08T08:13:57;5.33;;;1.30;;
64932;SDS011;51446;53.850;10.662;2023-08-08T08:16:22;6.97;;;1.53;;
64932;SDS011;51446;53.850;10.662;2023-08-08T08:18:47;5.13;;;1.30;;
64932;SDS011;51446;53.850;10.662;2023-08-08T08:21:13;6.30;;;1.20;;
64932;SDS011;51446;53.850;10.662;2023-08-08T08:23:39;6.95;;;1.50;;
64932;SDS011;51446;53.850;10.662;2023-08-08T08:26:04;4.13;;;1.37;;
64932;SDS011;51446;53.850;10.662;2023-08-08T08:28:30;4.17;;;1.57;;
64932;SDS011;51446;53.850;10.662;2023-08-08T08:30:55;4.72;;;1.17;;
64932;SDS011;51446;53.850;10.662;2023-08-08T08:33:20;7.87;;;1.63;;
64932;SDS011;51446;53.850;10.662;2023-08-08T08:35:46;6.03;;;1.37;;
64932;SDS011;51446;53.850;10.662;2023-08-08T08:38:11;5.87;;;1.50;;
64932;SDS011;51446;53.850;10.662;2023-08-08T08:40:37;4.40;;;1.50;;
64932;SDS011;51446;53.850;10.662;2023-08-08T08:43:04;3.85;;;1.20;;
64932;SDS011;51446;53.850;10.662;2023-08-08T08:45:31;3.08;;;1.45;;
64932;SDS011;51446;53.850;10.662;2023-08-08T08:47:59;6.30;;;1.30;;
64932;SDS011;51446;53.850;10.662;2023-08-08T08:50:26;4.50;;;1.50;;
64932;SDS011;51446;53.850;10.662;2023-08-08T08:52:53;4.72;;;1.38;;
64932;SDS011;51446;53.850;10.662;2023-08-08T08:55:21;3.67;;;1.30;;
64932;SDS011;51446;53.850;10.662;2023-08-08T08:57:46;4.32;;;1.20;;
64932;SDS011;51446;53.850;10.662;2023-08-08T09:00:12;3.47;;;1.40;;
64932;SDS011;51446;53.850;10.662;2023-08-08T09:02:38;3.72;;;1.52;;
64932;SDS011;51446;53.850;10.662;2023-08-08T09:05:04;7.25;;;1.40;;
64932;SDS011;51446;53.850;10.662;2023-08-08T09:07:29;4.87;;;1.50;;
64932;SDS011;51446;53.850;10.662;2023-08-08T09:09:57;5.65;;;1.50;;
64932;SDS011;51446;53.850;10.662;2023-08-08T09:12:22;3.30;;;1.43;;
64932;SDS011;51446;53.850;10.662;2023-08-08T09:14:54;3.25;;;1.50;;
64932;SDS011;51446;53.850;10.662;2023-08-08T09:17:21;3.23;;;1.50;;
64932;SDS011;51446;53.850;10.662;2023-08-08T09:19:47;2.95;;;1.45;;
64932;SDS011;51446;53.850;10.662;2023-08-08T09:22:12;5.10;;;1.40;;
64932;SDS011;51446;53.850;10.662;2023-08-08T09:24:39;3.50;;;1.00;;
64932;SDS011;51446;53.850;10.662;2023-08-08T09:27:06;1.97;;;1.20;;
64932;SDS011;51446;53.850;10.662;2023-08-08T09:29:35;4.57;;;1.70;;
64932;SDS011;51446;53.850;10.662;2023-08-08T09:32:04;5.22;;;1.38;;
64932;SDS011;51446;53.850;10.662;2023-08-08T09:34:30;3.53;;;1.20;;
64932;SDS011;51446;53.850;10.662;2023-08-08T09:36:57;1.87;;;1.13;;
64932;SDS011;51446;53.850;10.662;2023-08-08T09:39:22;2.13;;;1.10;;
64932;SDS011;51446;53.850;10.662;2023-08-08T09:41:48;2.17;;;1.20;;
64932;SDS011;51446;53.850;10.662;2023-08-08T09:44:14;1.02;;;0.80;;
64932;SDS011;51446;53.850;10.662;2023-08-08T09:46:41;1.50;;;0.73;;
64932;SDS011;51446;53.850;10.662;2023-08-08T09:49:06;2.70;;;0.88;;
64932;SDS011;51446;53.850;10.662;2023-08-08T09:51:38;2.40;;;0.70;;
64932;SDS011;51446;53.850;10.662;2023-08-08T09:54:04;3.37;;;1.13;;
64932;SDS011;51446;53.850;10.662;2023-08-08T09:56:31;3.92;;;0.90;;
64932;SDS011;51446;53.850;10.662;2023-08-08T09:58:58;3.70;;;1.00;;
64932;SDS011;51446;53.850;10.662;2023-08-08T10:01:25;2.55;;;0.80;;
64932;SDS011;51446;53.850;10.662;2023-08-08T10:03:52;3.60;;;1.00;;
64932;SDS011;51446;53.850;10.662;2023-08-08T10:06:17;2.90;;;1.00;;
64932;SDS011;51446;53.850;10.662;2023-08-08T10:08:43;1.70;;;1.10;;
64932;SDS011;51446;53.850;10.662;2023-08-08T10:11:10;3.25;;;0.98;;
64932;SDS011;51446;53.850;10.662;2023-08-08T10:13:36;2.63;;;1.20;;
64932;SDS011;51446;53.850;10.662;2023-08-08T10:16:04;5.60;;;1.52;;
64932;SDS011;51446;53.850;10.662;2023-08-08T10:18:33;3.67;;;1.10;;
64932;SDS011;51446;53.850;10.662;2023-08-08T10:20:58;4.40;;;1.10;;
64932;SDS011;51446;53.850;10.662;2023-08-08T10:23:24;1.83;;;0.90;;
64932;SDS011;51446;53.850;10.662;2023-08-08T10:25:51;4.13;;;1.02;;
64932;SDS011;51446;53.850;10.662;2023-08-08T10:28:20;5.97;;;0.90;;
64932;SDS011;51446;53.850;10.662;2023-08-08T10:30:47;3.50;;;0.80;;
64932;SDS011;51446;53.850;10.662;2023-08-08T10:33:22;3.22;;;0.80;;
64932;SDS011;51446;53.850;10.662;2023-08-08T10:35:58;4.18;;;0.90;;
64932;SDS011;51446;53.850;10.662;2023-08-08T10:38:25;4.18;;;0.80;;
64932;SDS011;51446;53.850;10.662;2023-08-08T10:41:03;1.95;;;0.80;;
64932;SDS011;51446;53.850;10.662;2023-08-08T10:43:28;2.63;;;0.80;;
64932;SDS011;51446;53.850;10.662;2023-08-08T10:46:02;1.85;;;0.80;;
64932;SDS011;51446;53.850;10.662;2023-08-08T10:48:28;2.97;;;1.10;;
64932;SDS011;51446;53.850;10.662;2023-08-08T10:50:54;3.67;;;0.85;;
64932;SDS011;51446;53.850;10.662;2023-08-08T10:53:27;2.25;;;0.95;;
64932;SDS011;51446;53.850;10.662;2023-08-08T10:55:59;2.00;;;0.70;;
64932;SDS011;51446;53.850;10.662;2023-08-08T10:58:39;1.77;;;0.77;;
64932;SDS011;51446;53.850;10.662;2023-08-08T11:01:06;3.45;;;0.85;;
64932;SDS011;51446;53.850;10.662;2023-08-08T11:03:37;1.75;;;0.75;;
64932;SDS011;51446;53.850;10.662;2023-08-08T11:06:04;1.70;;;0.60;;
64932;SDS011;51446;53.850;10.662;2023-08-08T11:08:34;2.42;;;0.68;;
64932;SDS011;51446;53.850;10.662;2023-08-08T11:11:01;2.80;;;0.60;;
64932;SDS011;51446;53.850;10.662;2023-08-08T11:13:28;3.10;;;0.70;;
64932;SDS011;51446;53.850;10.662;2023-08-08T11:15:53;3.23;;;1.33;;
64932;SDS011;51446;53.850;10.662;2023-08-08T11:18:19;5.10;;;1.00;;
64932;SDS011;51446;53.850;10.662;2023-08-08T11:20:44;4.00;;;1.03;;
64932;SDS011;51446;53.850;10.662;2023-08-08T11:23:10;3.20;;;0.60;;
64932;SDS011;51446;53.850;10.662;2023-08-08T11:25:39;2.55;;;0.80;;
64932;SDS011;51446;53.850;10.662;2023-08-08T11:28:09;4.00;;;0.95;;
64932;SDS011;51446;53.850;10.662;2023-08-08T11:30:40;3.35;;;0.90;;
64932;SDS011;51446;53.850;10.662;2023-08-08T11:33:07;2.38;;;0.95;;
64932;SDS011;51446;53.850;10.662;2023-08-08T11:35:32;2.50;;;0.97;;
64932;SDS011;51446;53.850;10.662;2023-08-08T11:37:59;4.93;;;1.15;;
64932;SDS011;51446;53.850;10.662;2023-08-08T11:40:26;3.10;;;0.90;;
64932;SDS011;51446;53.850;10.662;2023-08-08T11:42:54;2.37;;;1.07;;
64932;SDS011;51446;53.850;10.662;2023-08-08T11:45:21;2.25;;;0.80;;
64932;SDS011;51446;53.850;10.662;2023-08-08T11:47:53;1.15;;;0.80;;
64932;SDS011;51446;53.850;10.662;2023-08-08T11:50:21;4.43;;;0.95;;
64932;SDS011;51446;53.850;10.662;2023-08-08T11:52:53;4.93;;;1.15;;
64932;SDS011;51446;53.850;10.662;2023-08-08T11:55:20;4.50;;;1.17;;
64932;SDS011;51446;53.850;10.662;2023-08-08T11:57:53;3.20;;;1.15;;
64932;SDS011;51446;53.850;10.662;2023-08-08T12:00:21;5.75;;;1.17;;
64932;SDS011;51446;53.850;10.662;2023-08-08T12:02:52;3.70;;;0.90;;
64932;SDS011;51446;53.850;10.662;2023-08-08T12:05:20;3.50;;;1.10;;
64932;SDS011;51446;53.850;10.662;2023-08-08T12:07:47;4.75;;;1.10;;
64932;SDS011;51446;53.850;10.662;2023-08-08T12:10:14;3.90;;;0.93;;
64932;SDS011;51446;53.850;10.662;2023-08-08T12:12:46;4.83;;;1.20;;
64932;SDS011;51446;53.850;10.662;2023-08-08T12:15:13;4.75;;;1.27;;
64932;SDS011;51446;53.850;10.662;2023-08-08T12:17:42;4.68;;;1.10;;
64932;SDS011;51446;53.850;10.662;2023-08-08T12:20:08;2.75;;;1.45;;
64932;SDS011;51446;53.850;10.662;2023-08-08T12:22:34;5.68;;;1.20;;
64932;SDS011;51446;53.850;10.662;2023-08-08T12:25:00;3.80;;;0.90;;
64932;SDS011;51446;53.850;10.662;2023-08-08T12:27:26;3.08;;;1.05;;
64932;SDS011;51446;53.850;10.662;2023-08-08T12:29:53;5.20;;;0.80;;
64932;SDS011;51446;53.850;10.662;2023-08-08T12:32:19;7.33;;;1.07;;
64932;SDS011;51446;53.850;10.662;2023-08-08T12:34:45;7.13;;;1.33;;
64932;SDS011;51446;53.850;10.662;2023-08-08T12:37:10;4.80;;;1.50;;
64932;SDS011;51446;53.850;10.662;2023-08-08T12:39:36;5.27;;;1.30;;
64932;SDS011;51446;53.850;10.662;2023-08-08T12:42:01;7.23;;;1.40;;
64932;SDS011;51446;53.850;10.662;2023-08-08T12:44:26;3.43;;;1.07;;
64932;SDS011;51446;53.850;10.662;2023-08-08T12:46:51;4.53;;;1.37;;
64932;SDS011;51446;53.850;10.662;2023-08-08T12:49:17;6.97;;;1.73;;
64932;SDS011;51446;53.850;10.662;2023-08-08T12:51:42;4.97;;;1.30;;
64932;SDS011;51446;53.850;10.662;2023-08-08T12:54:07;7.13;;;1.70;;
64932;SDS011;51446;53.850;10.662;2023-08-08T12:56:33;5.70;;;1.30;;
64932;SDS011;51446;53.850;10.662;2023-08-08T12:58:58;8.77;;;1.47;;
64932;SDS011;51446;53.850;10.662;2023-08-08T13:01:23;5.57;;;1.30;;
64932;SDS011;51446;53.850;10.662;2023-08-08T13:03:50;3.65;;;1.25;;
64932;SDS011;51446;53.850;10.662;2023-08-08T13:06:15;4.80;;;1.20;;
64932;SDS011;51446;53.850;10.662;2023-08-08T13:08:41;5.03;;;1.50;;
64932;SDS011;51446;53.850;10.662;2023-08-08T13:11:06;5.87;;;1.57;;
64932;SDS011;51446;53.850;10.662;2023-08-08T13:13:32;5.55;;;1.10;;
64932;SDS011;51446;53.850;10.662;2023-08-08T13:15:58;3.23;;;1.17;;
64932;SDS011;51446;53.850;10.662;2023-08-08T13:18:23;4.83;;;1.40;;
64932;SDS011;51446;53.850;10.662;2023-08-08T13:20:48;2.97;;;1.20;;
64932;SDS011;51446;53.850;10.662;2023-08-08T13:23:13;3.23;;;1.17;;
64932;SDS011;51446;53.850;10.662;2023-08-08T13:25:39;5.47;;;1.40;;
64932;SDS011;51446;53.850;10.662;2023-08-08T13:28:05;7.22;;;1.20;;
64932;SDS011;51446;53.850;10.662;2023-08-08T13:30:31;6.63;;;1.38;;
64932;SDS011;51446;53.850;10.662;2023-08-08T13:32:58;7.40;;;1.43;;
64932;SDS011;51446;53.850;10.662;2023-08-08T13:35:23;6.38;;;1.58;;
64932;SDS011;51446;53.850;10.662;2023-08-08T13:37:49;3.83;;;1.27;;
64932;SDS011;51446;53.850;10.662;2023-08-08T13:40:17;7.25;;;1.75;;
64932;SDS011;51446;53.850;10.662;2023-08-08T13:42:42;7.53;;;1.43;;
64932;SDS011;51446;53.850;10.662;2023-08-08T13:45:09;7.22;;;1.30;;
64932;SDS011;51446;53.850;10.662;2023-08-08T13:47:35;4.03;;;1.40;;
64932;SDS011;51446;53.850;10.662;2023-08-08T13:50:02;6.27;;;1.90;;
64932;SDS011;51446;53.850;10.662;2023-08-08T13:52:27;7.30;;;1.33;;
64932;SDS011;51446;53.850;10.662;2023-08-08T13:54:53;4.43;;;1.40;;
64932;SDS011;51446;53.850;10.662;2023-08-08T13:57:20;4.27;;;1.10;;
64932;SDS011;51446;53.850;10.662;2023-08-08T13:59:45;2.70;;;1.00;;
64932;SDS011;51446;53.850;10.662;2023-08-08T14:02:11;6.73;;;1.20;;
64932;SDS011;51446;53.850;10.662;2023-08-08T14:04:37;7.13;;;1.10;;
64932;SDS011;51446;53.850;10.662;2023-08-08T14:07:02;6.77;;;1.40;;
64932;SDS011;51446;53.850;10.662;2023-08-08T14:09:27;6.67;;;1.40;;
64932;SDS011;51446;53.850;10.662;2023-08-08T14:11:53;3.55;;;1.27;;
64932;SDS011;51446;53.850;10.662;2023-08-08T14:14:18;4.43;;;1.20;;
64932;SDS011;51446;53.850;10.662;2023-08-08T14:16:43;4.70;;;1.27;;
64932;SDS011;51446;53.850;10.662;2023-08-08T14:19:08;7.00;;;1.30;;
64932;SDS011;51446;53.850;10.662;2023-08-08T14:21:34;6.53;;;1.50;;
64932;SDS011;51446;53.850;10.662;2023-08-08T14:23:59;4.97;;;1.33;;
64932;SDS011;51446;53.850;10.662;2023-08-08T14:26:25;5.00;;;1.25;;